createdAt,value
2022-11-19T00:02:07.198Z,1.08
2022-11-19T00:04:36.624Z,0.95
2022-11-19T00:07:04.773Z,1.17
2022-11-19T00:09:33.042Z,0.98
2022-11-19T00:12:18.360Z,1.13
2022-11-19T00:14:46.409Z,0.98
2022-11-19T00:17:14.358Z,0.80
2022-11-19T00:19:43.842Z,0.80
2022-11-19T00:22:12.096Z,0.90
2022-11-19T00:24:40.254Z,1.10
2022-11-19T00:27:08.219Z,0.88
2022-11-19T00:29:36.233Z,1.00
2022-11-19T00:32:04.443Z,1.25
2022-11-19T00:34:35.960Z,1.40
2022-11-19T00:37:05.369Z,1.30
2022-11-19T00:39:33.431Z,1.15
2022-11-19T00:42:01.699Z,1.42
2022-11-19T00:44:35.622Z,1.30
2022-11-19T00:47:05.182Z,1.50
2022-11-19T00:49:34.614Z,1.80
2022-11-19T00:52:02.599Z,1.80
2022-11-19T00:54:31.924Z,1.80
2022-11-19T00:56:59.946Z,1.90
2022-11-19T00:59:28.106Z,1.80
2022-11-19T01:01:56.124Z,1.83
2022-11-19T01:04:24.284Z,2.13
2022-11-19T01:06:52.262Z,2.38
2022-11-19T01:09:20.844Z,2.10
2022-11-19T01:11:50.356Z,1.98
2022-11-19T01:14:18.312Z,2.53
2022-11-19T01:16:46.312Z,2.45
2022-11-19T01:19:16.574Z,2.88
2022-11-19T01:21:44.860Z,2.40
2022-11-19T01:24:12.860Z,2.75
2022-11-19T01:26:45.474Z,2.25
2022-11-19T01:29:15.802Z,2.13
2022-11-19T01:31:43.901Z,2.38
2022-11-19T01:34:11.933Z,2.30
2022-11-19T01:36:39.937Z,2.00
2022-11-19T01:39:07.934Z,2.08
2022-11-19T01:41:36.303Z,2.22
2022-11-19T01:44:06.359Z,2.22
2022-11-19T01:46:37.313Z,2.20
2022-11-19T01:49:09.956Z,2.10
2022-11-19T01:51:42.221Z,2.25
2022-11-19T01:54:14.777Z,2.58
2022-11-19T01:56:43.223Z,1.98
2022-11-19T01:59:18.016Z,2.13
2022-11-19T02:01:47.598Z,2.08
2022-11-19T02:04:17.443Z,1.98
2022-11-19T02:06:46.728Z,2.33
2022-11-19T02:09:15.055Z,1.90
2022-11-19T02:11:58.604Z,2.17
2022-11-19T02:17:12.216Z,2.20
2022-11-19T02:20:03.651Z,2.08
2022-11-19T02:22:53.032Z,2.10
2022-11-19T02:25:34.906Z,2.10
2022-11-19T02:28:27.120Z,2.20
2022-11-19T02:31:00.734Z,2.25
2022-11-19T02:33:42.044Z,2.00
2022-11-19T02:36:16.852Z,1.80
2022-11-19T02:38:52.149Z,1.70
2022-11-19T02:41:35.708Z,1.88
2022-11-19T02:46:54.300Z,2.00
2022-11-19T02:49:25.315Z,2.10
2022-11-19T02:51:54.656Z,2.00
2022-11-19T02:54:22.682Z,2.00
2022-11-19T02:56:53.067Z,1.77
2022-11-19T02:59:46.212Z,1.77
2022-11-19T03:02:35.284Z,1.70
2022-11-19T03:05:05.020Z,1.77
2022-11-19T03:07:33.050Z,1.42
2022-11-19T03:10:04.398Z,1.42
2022-11-19T03:12:42.486Z,1.60
2022-11-19T03:15:41.862Z,1.80
2022-11-19T03:18:17.187Z,1.40
2022-11-19T03:20:49.883Z,1.30
2022-11-19T03:23:23.649Z,1.50
2022-11-19T03:25:57.534Z,1.40
2022-11-19T03:28:30.439Z,1.58
2022-11-19T03:31:00.914Z,1.42
2022-11-19T03:33:34.712Z,1.30
2022-11-19T03:36:08.286Z,1.30
2022-11-19T03:38:41.831Z,0.90
2022-11-19T03:41:12.046Z,0.90
2022-11-19T03:43:42.774Z,1.23
2022-11-19T03:46:15.645Z,1.02
2022-11-19T03:48:48.651Z,1.08
2022-11-19T03:51:21.105Z,1.15
2022-11-19T03:53:49.668Z,1.13
2022-11-19T03:56:22.821Z,0.82
2022-11-19T03:58:50.949Z,1.02
2022-11-19T04:01:19.057Z,1.00
2022-11-19T04:04:02.358Z,0.88
2022-11-19T04:06:30.344Z,0.88
2022-11-19T04:08:58.473Z,0.80
2022-11-19T04:13:53.385Z,0.90
2022-11-19T04:16:21.364Z,0.98
2022-11-19T04:18:50.788Z,1.27
2022-11-19T04:21:18.737Z,0.77
2022-11-19T04:23:46.742Z,0.93
2022-11-19T04:26:14.880Z,0.80
2022-11-19T04:28:42.847Z,1.00
2022-11-19T04:31:16.428Z,0.80
2022-11-19T04:33:45.975Z,1.10
2022-11-19T04:36:15.379Z,0.90
2022-11-19T04:38:43.770Z,0.88
2022-11-19T04:41:11.947Z,0.88
2022-11-19T04:43:40.073Z,0.77
2022-11-19T04:46:08.389Z,1.02
2022-11-19T04:48:36.544Z,0.82
2022-11-19T04:51:04.551Z,0.90
2022-11-19T04:53:33.903Z,0.90
2022-11-19T04:56:01.923Z,0.73
2022-11-19T04:58:30.008Z,0.85
2022-11-19T05:00:58.045Z,0.90
2022-11-19T05:03:26.174Z,1.20
2022-11-19T05:05:54.147Z,0.70
2022-11-19T05:08:22.370Z,1.10
2022-11-19T05:10:51.868Z,0.75
2022-11-19T05:13:19.838Z,0.80
2022-11-19T05:15:48.123Z,1.00
2022-11-19T05:18:16.369Z,1.00
2022-11-19T05:20:44.620Z,0.88
2022-11-19T05:23:12.711Z,0.90
2022-11-19T05:25:40.691Z,0.77
2022-11-19T05:28:10.146Z,0.70
2022-11-19T05:30:38.160Z,0.73
2022-11-19T05:33:06.499Z,0.93
2022-11-19T05:35:34.536Z,1.08
2022-11-19T05:38:02.828Z,1.20
2022-11-19T05:40:30.847Z,1.10
2022-11-19T05:43:05.133Z,1.40
2022-11-19T05:45:35.251Z,1.25
2022-11-19T05:48:03.265Z,1.30
2022-11-19T05:50:31.285Z,1.13
2022-11-19T05:52:59.946Z,1.10
2022-11-19T05:55:28.052Z,1.35
2022-11-19T05:57:57.191Z,1.17
2022-11-19T06:00:25.512Z,1.50
2022-11-19T06:02:54.910Z,0.95
2022-11-19T06:05:22.964Z,1.15
2022-11-19T06:07:51.115Z,0.98
2022-11-19T06:10:19.774Z,1.10
2022-11-19T06:12:47.775Z,1.00
2022-11-19T06:15:16.183Z,1.05
2022-11-19T06:17:44.455Z,1.42
2022-11-19T06:20:13.950Z,0.88
2022-11-19T06:22:41.938Z,1.20
2022-11-19T06:25:10.748Z,1.10
2022-11-19T06:27:38.797Z,1.08
2022-11-19T06:30:08.328Z,0.80
2022-11-19T06:32:36.694Z,1.10
2022-11-19T06:35:05.690Z,0.98
2022-11-19T06:37:35.911Z,0.80
2022-11-19T06:40:04.584Z,1.10
2022-11-19T06:42:38.893Z,1.20
2022-11-19T06:45:09.569Z,1.02
2022-11-19T06:47:38.765Z,1.13
2022-11-19T06:50:08.142Z,1.08
2022-11-19T06:52:37.773Z,0.82
2022-11-19T06:55:07.475Z,1.17
2022-11-19T06:57:35.464Z,1.30
2022-11-19T07:00:04.408Z,1.10
2022-11-19T07:02:32.488Z,0.70
2022-11-19T07:05:00.454Z,1.00
2022-11-19T07:07:28.699Z,1.08
2022-11-19T07:10:01.317Z,0.70
2022-11-19T07:12:30.205Z,0.73
2022-11-19T07:15:03.731Z,0.80
2022-11-19T07:17:32.799Z,0.90
2022-11-19T07:20:00.864Z,0.70
2022-11-19T07:22:30.359Z,0.50
2022-11-19T07:25:02.059Z,0.40
2022-11-19T07:27:30.034Z,0.50
2022-11-19T07:29:58.055Z,0.60
2022-11-19T07:32:26.147Z,0.73
2022-11-19T07:34:54.200Z,0.65
2022-11-19T07:37:22.203Z,0.80
2022-11-19T07:39:51.664Z,0.60
2022-11-19T07:42:38.592Z,0.60
2022-11-19T07:45:10.403Z,0.70
2022-11-19T07:47:38.870Z,0.95
2022-11-19T07:50:07.851Z,0.70
2022-11-19T07:52:36.242Z,1.08
2022-11-19T07:55:04.659Z,1.00
2022-11-19T07:57:36.285Z,0.70
2022-11-19T08:00:07.151Z,1.17
2022-11-19T08:02:41.304Z,1.00
2022-11-19T08:05:11.111Z,0.90
2022-11-19T08:07:39.439Z,0.90
2022-11-19T08:10:08.676Z,0.82
2022-11-19T08:12:40.521Z,0.90
2022-11-19T08:15:09.899Z,0.80
2022-11-19T08:17:55.808Z,0.80
2022-11-19T08:20:23.888Z,0.80
2022-11-19T08:22:53.615Z,0.70
2022-11-19T08:25:24.013Z,0.80
2022-11-19T08:27:53.514Z,0.70
2022-11-19T08:30:21.508Z,0.60
2022-11-19T08:32:49.638Z,0.82
2022-11-19T08:35:18.292Z,0.85
2022-11-19T08:37:48.146Z,0.52
2022-11-19T08:40:17.101Z,0.80
2022-11-19T08:43:03.527Z,0.60
2022-11-19T08:45:35.447Z,0.60
2022-11-19T08:48:05.165Z,0.63
2022-11-19T08:50:33.787Z,0.55
2022-11-19T08:53:04.928Z,0.60
2022-11-19T08:55:33.690Z,0.73
2022-11-19T08:58:03.860Z,0.70
2022-11-19T09:00:36.516Z,0.65
2022-11-19T09:03:04.696Z,2.40
2022-11-19T09:05:32.778Z,0.90
2022-11-19T09:08:00.933Z,0.63
2022-11-19T09:10:29.087Z,0.95
2022-11-19T09:12:57.066Z,0.70
2022-11-19T09:15:25.121Z,2.40
2022-11-19T09:17:54.902Z,0.77
2022-11-19T09:20:23.328Z,2.33
2022-11-19T09:22:51.402Z,1.83
2022-11-19T09:25:19.550Z,5.57
2022-11-19T09:27:47.619Z,1.20
2022-11-19T09:30:16.230Z,0.90
2022-11-19T09:32:44.395Z,0.90
2022-11-19T09:35:14.227Z,0.70
2022-11-19T09:37:42.796Z,0.95
2022-11-19T09:40:19.328Z,0.70
2022-11-19T09:43:01.475Z,1.02
2022-11-19T09:45:41.205Z,1.35
2022-11-19T09:48:22.304Z,1.33
2022-11-19T09:50:59.464Z,1.90
2022-11-19T09:53:32.069Z,1.20
2022-11-19T09:56:04.250Z,2.70
2022-11-19T09:58:38.068Z,1.77
2022-11-19T10:01:06.520Z,1.77
2022-11-19T10:03:34.589Z,2.08
2022-11-19T10:06:23.945Z,1.77
2022-11-19T10:09:12.496Z,1.40
2022-11-19T10:11:53.228Z,0.82
2022-11-19T10:14:46.108Z,0.65
2022-11-19T10:17:23.456Z,0.95
2022-11-19T10:20:03.689Z,1.08
2022-11-19T10:22:40.823Z,1.05
2022-11-19T10:25:18.157Z,0.85
2022-11-19T10:27:51.152Z,2.05
2022-11-19T10:30:21.692Z,1.33
2022-11-19T10:32:58.396Z,0.95
2022-11-19T10:35:31.017Z,0.85
2022-11-19T10:38:02.890Z,2.63
2022-11-19T10:40:37.819Z,1.05
2022-11-19T10:43:21.991Z,2.30
2022-11-19T10:45:51.539Z,2.00
2022-11-19T10:48:23.152Z,1.05
2022-11-19T10:50:51.708Z,0.60
2022-11-19T10:53:26.317Z,0.60
2022-11-19T10:55:58.525Z,0.70
2022-11-19T10:58:30.559Z,0.57
2022-11-19T11:01:01.638Z,0.70
2022-11-19T11:03:33.551Z,0.55
2022-11-19T11:06:05.203Z,0.80
2022-11-19T11:08:35.185Z,0.68
2022-11-19T11:11:03.359Z,0.80
2022-11-19T11:13:55.983Z,0.70
2022-11-19T11:16:27.634Z,0.80
2022-11-19T11:18:59.180Z,0.88
2022-11-19T11:21:34.549Z,0.60
2022-11-19T11:24:06.660Z,0.60
2022-11-19T11:26:37.772Z,0.75
2022-11-19T11:29:08.842Z,1.00
2022-11-19T11:31:40.559Z,0.80
2022-11-19T11:34:15.748Z,0.98
2022-11-19T11:36:45.235Z,1.00
2022-11-19T11:39:27.397Z,0.90
2022-11-19T11:42:16.021Z,0.80
2022-11-19T11:44:52.225Z,1.10
2022-11-19T11:47:23.753Z,1.00
2022-11-19T11:50:00.671Z,0.90
2022-11-19T11:52:35.038Z,1.13
2022-11-19T11:55:06.949Z,1.10
2022-11-19T11:57:36.225Z,1.00
2022-11-19T12:00:31.550Z,1.05
2022-11-19T12:03:04.659Z,0.85
2022-11-19T12:05:51.551Z,1.10
2022-11-19T12:08:35.792Z,1.30
2022-11-19T12:11:11.841Z,1.10
2022-11-19T12:14:00.513Z,0.90
2022-11-19T12:16:46.989Z,1.10
2022-11-19T12:19:34.872Z,1.00
2022-11-19T12:22:10.822Z,0.98
2022-11-19T12:24:55.965Z,0.80
2022-11-19T12:27:33.521Z,1.45
2022-11-19T12:30:07.114Z,1.00
2022-11-19T12:33:09.440Z,0.98
2022-11-19T12:35:55.618Z,1.02
2022-11-19T12:38:35.454Z,1.10
2022-11-19T12:41:29.171Z,1.15
2022-11-19T12:44:00.477Z,1.20
2022-11-19T12:46:46.870Z,0.90
2022-11-19T12:49:37.695Z,0.90
2022-11-19T12:52:20.636Z,1.00
2022-11-19T12:54:56.633Z,0.98
2022-11-19T12:57:37.361Z,0.88
2022-11-19T13:00:20.541Z,0.75
2022-11-19T13:03:08.691Z,0.80
2022-11-19T13:06:04.049Z,0.75
2022-11-19T13:08:35.520Z,0.85
2022-11-19T13:11:10.179Z,0.65
2022-11-19T13:13:42.213Z,0.75
2022-11-19T13:16:14.466Z,0.60
2022-11-19T13:18:46.600Z,0.80
2022-11-19T13:21:22.226Z,0.85
2022-11-19T13:23:51.824Z,0.70
2022-11-19T13:26:23.934Z,1.17
2022-11-19T13:28:56.058Z,0.90
2022-11-19T13:31:34.897Z,0.80
2022-11-19T13:34:09.433Z,0.80
2022-11-19T13:36:43.426Z,0.82
2022-11-19T13:39:17.400Z,0.93
2022-11-19T13:42:09.129Z,1.00
2022-11-19T13:44:41.615Z,1.15
2022-11-19T13:47:19.865Z,0.80
2022-11-19T13:49:52.394Z,1.00
2022-11-19T13:52:27.063Z,1.07
2022-11-19T13:54:57.478Z,1.10
2022-11-19T13:57:32.077Z,1.27
2022-11-19T14:00:03.246Z,1.30
2022-11-19T14:03:02.729Z,1.20
2022-11-19T14:06:07.463Z,0.90
2022-11-19T14:08:44.841Z,1.15
2022-11-19T14:11:23.767Z,1.00
2022-11-19T14:14:30.484Z,1.30
2022-11-19T14:17:25.173Z,1.50
2022-11-19T14:20:14.540Z,0.80
2022-11-19T14:23:01.659Z,1.20
2022-11-19T14:26:00.970Z,1.27
2022-11-19T14:28:42.323Z,0.88
2022-11-19T14:31:10.943Z,1.20
2022-11-19T14:34:04.060Z,3.03
2022-11-19T14:36:44.612Z,1.15
2022-11-19T14:39:20.847Z,1.00
2022-11-19T14:42:09.032Z,1.23
2022-11-19T14:44:37.205Z,1.02
2022-11-19T14:47:33.467Z,1.02
2022-11-19T14:50:05.017Z,1.13
2022-11-19T14:52:39.584Z,1.10
2022-11-19T14:55:21.150Z,1.95
2022-11-19T14:57:59.193Z,0.90
2022-11-19T15:00:31.223Z,0.90
2022-11-19T15:03:00.393Z,1.58
2022-11-19T15:05:33.235Z,1.10
2022-11-19T15:08:31.809Z,0.98
2022-11-19T15:11:08.074Z,1.30
2022-11-19T15:13:36.928Z,1.52
2022-11-19T15:16:12.149Z,1.10
2022-11-19T15:19:15.630Z,0.98
2022-11-19T15:22:16.141Z,1.45
2022-11-19T15:25:03.629Z,1.40
2022-11-19T15:27:43.777Z,1.83
2022-11-19T15:30:18.342Z,2.08
2022-11-19T15:33:04.820Z,4.13
2022-11-19T15:35:52.131Z,4.90
2022-11-19T15:38:30.729Z,3.63
2022-11-19T15:41:02.967Z,2.08
2022-11-19T15:43:35.951Z,2.15
2022-11-19T15:46:11.193Z,2.13
2022-11-19T15:48:45.811Z,3.03
2022-11-19T15:51:17.373Z,2.10
2022-11-19T15:53:59.531Z,1.55
2022-11-19T15:56:32.991Z,1.90
2022-11-19T15:59:02.682Z,1.92
2022-11-19T16:01:34.424Z,1.48
2022-11-19T16:04:07.713Z,1.17
2022-11-19T16:06:37.103Z,1.15
2022-11-19T16:09:05.902Z,1.50
2022-11-19T16:11:56.950Z,1.25
2022-11-19T16:14:44.529Z,1.50
2022-11-19T16:17:39.861Z,1.48
2022-11-19T16:20:22.991Z,1.17
2022-11-19T16:22:56.378Z,1.35
2022-11-19T16:28:03.916Z,1.30
2022-11-19T16:30:42.743Z,1.33
2022-11-19T16:33:15.837Z,1.50
2022-11-19T16:35:48.322Z,1.38
2022-11-19T16:38:26.185Z,1.42
2022-11-19T16:41:13.145Z,1.13
2022-11-19T16:43:47.099Z,1.70
2022-11-19T16:46:17.947Z,1.60
2022-11-19T16:48:57.937Z,2.45
2022-11-19T16:51:37.918Z,3.75
2022-11-19T16:54:07.954Z,3.58
2022-11-19T16:56:40.608Z,5.35
2022-11-19T16:59:19.349Z,5.05
2022-11-19T17:01:55.297Z,5.18
2022-11-19T17:04:25.951Z,4.43
2022-11-19T17:06:54.211Z,3.58
2022-11-19T17:09:41.583Z,4.82
2022-11-19T17:12:27.760Z,4.82
2022-11-19T17:14:59.733Z,3.85
2022-11-19T17:17:41.082Z,1.98
2022-11-19T17:21:00.687Z,1.60
2022-11-19T17:23:31.489Z,1.20
2022-11-19T17:26:03.575Z,1.58
2022-11-19T17:28:40.854Z,1.65
2022-11-19T17:31:17.159Z,1.58
2022-11-19T17:33:56.660Z,1.60
2022-11-19T17:36:26.414Z,2.45
2022-11-19T17:38:54.750Z,2.47
2022-11-19T17:41:39.389Z,3.83
2022-11-19T17:44:30.669Z,3.38
2022-11-19T17:47:01.649Z,2.35
2022-11-19T17:49:29.896Z,2.00
2022-11-19T17:51:57.912Z,2.47
2022-11-19T17:54:26.069Z,2.60
2022-11-19T17:56:54.220Z,1.70
2022-11-19T17:59:22.339Z,1.58
2022-11-19T18:01:50.362Z,1.38
2022-11-19T18:04:20.112Z,1.30
2022-11-19T18:06:49.498Z,1.60
2022-11-19T18:09:19.434Z,1.83
2022-11-19T18:11:48.198Z,1.70
2022-11-19T18:14:16.296Z,1.40
2022-11-19T18:16:44.682Z,1.70
2022-11-19T18:19:14.756Z,1.35
2022-11-19T18:21:46.412Z,1.42
2022-11-19T18:24:14.404Z,1.40
2022-11-19T18:26:42.531Z,1.40
2022-11-19T18:29:12.208Z,1.65
2022-11-19T18:31:44.310Z,1.80
2022-11-19T18:34:15.507Z,2.45
2022-11-19T18:36:44.947Z,2.20
2022-11-19T18:39:13.479Z,2.30
2022-11-19T18:41:41.505Z,2.40
2022-11-19T18:44:31.272Z,2.00
2022-11-19T18:46:59.611Z,1.60
2022-11-19T18:49:27.923Z,2.08
2022-11-19T18:51:57.698Z,1.73
2022-11-19T18:54:26.187Z,1.80
2022-11-19T18:56:54.721Z,1.80
2022-11-19T18:59:23.324Z,1.70
2022-11-19T19:01:55.627Z,1.42
2022-11-19T19:04:24.454Z,1.67
2022-11-19T19:06:52.502Z,1.40
2022-11-19T19:09:22.442Z,1.73
2022-11-19T19:12:13.049Z,1.77
2022-11-19T19:14:43.019Z,4.05
2022-11-19T19:17:11.744Z,2.83
2022-11-19T19:19:40.052Z,2.63
2022-11-19T19:22:08.800Z,3.33
2022-11-19T19:24:38.456Z,2.70
2022-11-19T19:27:06.546Z,2.15
2022-11-19T19:29:34.564Z,2.30
2022-11-19T19:32:02.593Z,2.47
2022-11-19T19:34:30.894Z,2.80
2022-11-19T19:36:58.999Z,2.60
2022-11-19T19:39:27.187Z,2.67
2022-11-19T19:41:56.639Z,2.80
2022-11-19T19:44:24.695Z,3.67
2022-11-19T19:46:52.778Z,4.47
2022-11-19T19:49:21.244Z,4.45
2022-11-19T19:51:50.926Z,4.28
2022-11-19T19:54:21.408Z,4.32
2022-11-19T19:56:49.563Z,4.40
2022-11-19T19:59:19.493Z,3.60
2022-11-19T20:01:50.567Z,3.85
2022-11-19T20:04:18.730Z,7.45
2022-11-19T20:06:48.595Z,8.48
2022-11-19T20:09:16.770Z,7.70
2022-11-19T20:11:44.846Z,4.53
2022-11-19T20:14:12.910Z,3.90
2022-11-19T20:16:42.833Z,4.50
2022-11-19T20:19:16.981Z,4.32
2022-11-19T20:21:47.064Z,3.88
2022-11-19T20:24:17.086Z,3.22
2022-11-19T20:26:45.238Z,3.33
2022-11-19T20:29:16.306Z,3.70
2022-11-19T20:31:48.920Z,4.35
2022-11-19T20:34:17.802Z,4.10
2022-11-19T20:36:46.149Z,4.30
2022-11-19T20:39:14.178Z,3.70
2022-11-19T20:42:14.253Z,3.78
2022-11-19T20:44:42.291Z,3.55
2022-11-19T20:47:12.461Z,2.67
2022-11-19T20:49:40.884Z,3.47
2022-11-19T20:52:10.777Z,3.25
2022-11-19T20:54:39.079Z,2.97
2022-11-19T20:57:07.074Z,2.53
2022-11-19T20:59:35.203Z,2.85
2022-11-19T21:02:03.256Z,2.75
2022-11-19T21:04:36.407Z,3.45
2022-11-19T21:07:04.795Z,2.97
2022-11-19T21:09:33.490Z,3.03
2022-11-19T21:12:01.749Z,3.35
2022-11-19T21:14:29.793Z,2.88
2022-11-19T21:16:57.804Z,2.83
2022-11-19T21:19:25.857Z,3.50
2022-11-19T21:21:55.209Z,3.38
2022-11-19T21:24:23.227Z,3.40
2022-11-19T21:26:52.028Z,3.70
2022-11-19T21:29:20.250Z,3.03
2022-11-19T21:31:49.123Z,2.90
2022-11-19T21:34:18.628Z,3.20
2022-11-19T21:36:47.831Z,3.22
2022-11-19T21:39:19.422Z,3.00
2022-11-19T21:41:47.871Z,2.75
2022-11-19T21:44:21.046Z,3.15
2022-11-19T21:46:49.993Z,2.78
2022-11-19T21:49:18.818Z,2.85
2022-11-19T21:51:47.017Z,2.97
2022-11-19T21:54:15.003Z,2.88
2022-11-19T21:56:44.423Z,3.00
2022-11-19T21:59:12.495Z,2.92
2022-11-19T22:01:40.499Z,3.15
2022-11-19T22:04:08.518Z,3.38
2022-11-19T22:06:36.551Z,3.22
2022-11-19T22:09:04.743Z,3.25
2022-11-19T22:11:32.750Z,3.10
2022-11-19T22:14:04.432Z,2.92
2022-11-19T22:16:34.890Z,2.88
2022-11-19T22:19:02.950Z,2.55
2022-11-19T22:21:30.984Z,2.22
2022-11-19T22:23:59.189Z,2.90
2022-11-19T22:26:27.269Z,2.95
2022-11-19T22:28:55.681Z,2.67
2022-11-19T22:31:25.686Z,2.60
2022-11-19T22:33:54.107Z,2.70
2022-11-19T22:36:23.063Z,2.58
2022-11-19T22:38:51.921Z,2.80
2022-11-19T22:41:22.487Z,2.30
2022-11-19T22:43:51.154Z,2.20
2022-11-19T22:46:20.293Z,2.75
2022-11-19T22:48:49.689Z,2.78
2022-11-19T22:51:20.422Z,2.33
2022-11-19T22:53:48.988Z,2.50
2022-11-19T22:56:19.187Z,2.38
2022-11-19T22:58:47.341Z,2.08
2022-11-19T23:01:18.138Z,2.60
2022-11-19T23:03:46.591Z,2.45
2022-11-19T23:06:16.187Z,2.10
2022-11-19T23:08:44.891Z,1.95
2022-11-19T23:11:15.113Z,2.40
2022-11-19T23:13:44.062Z,2.22
2022-11-19T23:16:14.133Z,1.75
2022-11-19T23:18:46.681Z,1.80
2022-11-19T23:21:18.036Z,1.67
2022-11-19T23:23:46.067Z,1.70
2022-11-19T23:26:16.092Z,1.80
2022-11-19T23:28:44.704Z,2.00
2022-11-19T23:31:16.185Z,1.95
2022-11-19T23:33:44.594Z,2.28
2022-11-19T23:36:15.581Z,2.08
2022-11-19T23:38:43.735Z,1.98
2022-11-19T23:41:13.655Z,1.90
2022-11-19T23:43:42.281Z,1.90
2022-11-19T23:46:13.192Z,1.80
2022-11-19T23:48:42.839Z,1.77
2022-11-19T23:51:12.586Z,1.80
2022-11-19T23:53:42.089Z,1.70
2022-11-19T23:56:10.239Z,1.80
2022-11-19T23:58:39.054Z,1.85
